Time;durP1;ratioP1;P1;durP2;ratioP2;P2;SDS_P1;SDS_P2;PMS_P1;PMS_P2;Temp;Humidity;BMP_temperature;BMP_pressure;BME280_temperature;BME280_humidity;BME280_pressure;Samples;Min_cycle;Max_cycle;Signal;HPM_P1;HPM_P2
2023/11/10 00:01:32;;;;;;;5.10;4.13;;;;;;;;;;5020955;28;20487;-69
2023/11/10 00:03:57;;;;;;;6.00;4.05;;;;;;;;;;5022111;28;20297;-68
2023/11/10 00:06:22;;;;;;;6.93;4.38;;;;;;;;;;5025934;28;20284;-71
2023/11/10 00:08:48;;;;;;;6.40;4.38;;;;;;;;;;5024895;28;20480;-71
2023/11/10 00:11:14;;;;;;;5.70;4.03;;;;;;;;;;5038858;28;20578;-69
2023/11/10 00:13:39;;;;;;;8.53;4.20;;;;;;;;;;5029464;28;20829;-70
2023/11/10 00:16:06;;;;;;;6.20;4.15;;;;;;;;;;5029524;28;20214;-68
2023/11/10 00:18:31;;;;;;;7.80;4.15;;;;;;;;;;5029694;28;20197;-69
2023/11/10 00:20:57;;;;;;;6.45;3.70;;;;;;;;;;5031067;28;20575;-68
2023/11/10 00:23:22;;;;;;;7.53;3.75;;;;;;;;;;5026366;28;20265;-70
2023/11/10 00:25:48;;;;;;;5.80;3.50;;;;;;;;;;5020939;28;20595;-68
2023/11/10 00:28:13;;;;;;;4.20;3.42;;;;;;;;;;5023562;28;20190;-69
2023/11/10 00:30:39;;;;;;;7.10;4.13;;;;;;;;;;5037167;28;20187;-69
2023/11/10 00:33:04;;;;;;;6.90;3.78;;;;;;;;;;5019219;28;20187;-68
2023/11/10 00:35:30;;;;;;;6.97;3.63;;;;;;;;;;5026881;28;20209;-69
2023/11/10 00:37:55;;;;;;;4.05;3.47;;;;;;;;;;5014545;28;20205;-70
2023/11/10 00:40:21;;;;;;;5.90;4.10;;;;;;;;;;5024709;28;20198;-70
2023/11/10 00:42:47;;;;;;;6.13;3.65;;;;;;;;;;5029742;28;20178;-71
2023/11/10 00:45:12;;;;;;;7.28;3.60;;;;;;;;;;5032890;28;20197;-69
2023/11/10 00:47:38;;;;;;;5.35;3.10;;;;;;;;;;5020760;28;20642;-69
2023/11/10 00:50:05;;;;;;;4.60;3.50;;;;;;;;;;5029105;28;20186;-69
2023/11/10 00:52:30;;;;;;;4.57;3.45;;;;;;;;;;5027986;28;20248;-70
2023/11/10 00:54:56;;;;;;;3.80;3.10;;;;;;;;;;5029741;28;20600;-68
2023/11/10 00:57:22;;;;;;;6.60;3.72;;;;;;;;;;5023743;28;20780;-68
2023/11/10 00:59:47;;;;;;;6.25;3.20;;;;;;;;;;5034512;28;20423;-68
2023/11/10 01:02:13;;;;;;;11.60;2.92;;;;;;;;;;5028823;28;20190;-69
2023/11/10 01:04:38;;;;;;;5.32;3.17;;;;;;;;;;5026425;28;20282;-68
2023/11/10 01:07:04;;;;;;;4.68;3.28;;;;;;;;;;5020928;28;20187;-68
2023/11/10 01:09:29;;;;;;;5.57;3.28;;;;;;;;;;5027363;28;20197;-68
2023/11/10 01:11:55;;;;;;;6.35;2.95;;;;;;;;;;5028019;28;20530;-70
2023/11/10 01:14:21;;;;;;;5.38;3.20;;;;;;;;;;5024632;28;20303;-68
2023/11/10 01:16:46;;;;;;;4.05;2.50;;;;;;;;;;5037966;28;20285;-69
2023/11/10 01:19:12;;;;;;;5.13;2.60;;;;;;;;;;5022521;28;20453;-68
2023/11/10 01:21:37;;;;;;;6.30;3.13;;;;;;;;;;5025939;28;20190;-71
2023/11/10 01:24:04;;;;;;;4.70;2.80;;;;;;;;;;5029356;28;20269;-68
2023/11/10 01:26:29;;;;;;;4.68;2.80;;;;;;;;;;5028132;28;20478;-69
2023/11/10 01:28:55;;;;;;;6.35;2.80;;;;;;;;;;5035523;28;20222;-69
2023/11/10 01:31:21;;;;;;;7.13;2.67;;;;;;;;;;5030686;28;20178;-69
2023/11/10 01:33:47;;;;;;;4.88;2.38;;;;;;;;;;5026950;28;20216;-68
2023/11/10 01:36:12;;;;;;;6.25;2.78;;;;;;;;;;5020883;28;20297;-70
2023/11/10 01:38:37;;;;;;;5.05;2.72;;;;;;;;;;5027466;28;20502;-70
2023/11/10 01:41:03;;;;;;;3.70;2.63;;;;;;;;;;5028442;28;20194;-69
2023/11/10 01:43:29;;;;;;;2.92;2.50;;;;;;;;;;5028136;28;20293;-70
2023/11/10 01:45:55;;;;;;;5.43;2.50;;;;;;;;;;5027841;28;20615;-69
2023/11/10 01:48:21;;;;;;;5.25;2.67;;;;;;;;;;5023721;28;20289;-68
2023/11/10 01:50:46;;;;;;;6.47;2.70;;;;;;;;;;5026214;28;20190;-69
2023/11/10 01:53:13;;;;;;;7.80;2.67;;;;;;;;;;5027171;28;20586;-69
2023/11/10 01:55:41;;;;;;;7.15;2.50;;;;;;;;;;5016754;28;20336;-69
2023/11/10 01:58:08;;;;;;;7.45;2.33;;;;;;;;;;5020552;28;20210;-70
2023/11/10 02:00:33;;;;;;;6.22;2.72;;;;;;;;;;5024256;28;20186;-69
2023/11/10 02:03:07;;;;;;;7.50;2.30;;;;;;;;;;5025601;28;20281;-70
2023/11/10 02:05:33;;;;;;;5.82;2.35;;;;;;;;;;5033530;28;20715;-70
2023/11/10 02:08:04;;;;;;;7.75;2.65;;;;;;;;;;5030346;28;20194;-70
2023/11/10 02:10:30;;;;;;;4.38;2.08;;;;;;;;;;5028721;28;20224;-69
2023/11/10 02:12:56;;;;;;;6.10;2.00;;;;;;;;;;5022387;28;20632;-71
2023/11/10 02:15:23;;;;;;;4.20;2.35;;;;;;;;;;5020448;28;20216;-69
2023/11/10 02:17:49;;;;;;;4.80;2.10;;;;;;;;;;5025083;28;20242;-70
2023/11/10 02:20:14;;;;;;;9.02;2.10;;;;;;;;;;5022532;28;20683;-70
2023/11/10 02:22:44;;;;;;;4.57;1.98;;;;;;;;;;5023438;28;20276;-69
2023/11/10 02:25:16;;;;;;;3.53;1.60;;;;;;;;;;5023966;28;20256;-70
2023/11/10 02:27:42;;;;;;;3.75;1.80;;;;;;;;;;5027812;28;20649;-69
2023/11/10 02:30:08;;;;;;;2.65;1.75;;;;;;;;;;5014786;28;20191;-70
2023/11/10 02:32:34;;;;;;;8.20;2.35;;;;;;;;;;5026751;28;20574;-70
2023/11/10 02:35:00;;;;;;;4.40;1.75;;;;;;;;;;5027893;28;20205;-69
2023/11/10 02:37:25;;;;;;;4.05;1.90;;;;;;;;;;5023877;28;20218;-69
2023/11/10 02:39:51;;;;;;;5.03;1.50;;;;;;;;;;5028676;28;20198;-69
2023/11/10 02:42:16;;;;;;;3.92;1.55;;;;;;;;;;5026428;28;20251;-69
2023/11/10 02:44:42;;;;;;;5.30;1.55;;;;;;;;;;5028413;28;20201;-70
2023/11/10 02:47:07;;;;;;;2.92;1.40;;;;;;;;;;5012306;28;20191;-69
2023/11/10 02:49:33;;;;;;;4.00;1.33;;;;;;;;;;5026850;28;20653;-69
2023/11/10 02:51:58;;;;;;;6.38;1.80;;;;;;;;;;5018728;28;20217;-69
2023/11/10 02:54:23;;;;;;;2.85;1.33;;;;;;;;;;5023341;28;20264;-69
2023/11/10 02:56:49;;;;;;;5.75;1.70;;;;;;;;;;5034431;28;20542;-69
2023/11/10 02:59:14;;;;;;;4.28;1.48;;;;;;;;;;5024874;28;20214;-70
2023/11/10 03:01:41;;;;;;;6.03;1.35;;;;;;;;;;5025480;28;20198;-72
2023/11/10 03:04:06;;;;;;;3.95;1.50;;;;;;;;;;5026144;28;20259;-69
2023/11/10 03:06:31;;;;;;;5.82;1.55;;;;;;;;;;5027358;28;20190;-70
2023/11/10 03:08:58;;;;;;;2.75;1.50;;;;;;;;;;5024319;28;20216;-70
2023/11/10 03:11:24;;;;;;;2.58;1.40;;;;;;;;;;5027941;28;20190;-70
2023/11/10 03:13:50;;;;;;;10.48;1.67;;;;;;;;;;5020073;28;20256;-71
2023/11/10 03:16:16;;;;;;;4.53;1.50;;;;;;;;;;5023459;28;20328;-69
2023/11/10 03:18:41;;;;;;;2.97;1.38;;;;;;;;;;5022831;28;20744;-70
2023/11/10 03:21:07;;;;;;;3.58;1.35;;;;;;;;;;5016631;28;20229;-70
2023/11/10 03:23:33;;;;;;;4.65;1.73;;;;;;;;;;5019076;28;20642;-69
2023/11/10 03:25:59;;;;;;;5.50;2.00;;;;;;;;;;5015719;28;20238;-72
2023/11/10 03:28:26;;;;;;;4.40;1.70;;;;;;;;;;5014548;28;20243;-70
2023/11/10 03:30:51;;;;;;;4.63;1.80;;;;;;;;;;5026304;28;20186;-70
2023/11/10 03:33:17;;;;;;;6.57;2.35;;;;;;;;;;5026867;28;20704;-69
2023/11/10 03:35:44;;;;;;;6.77;1.97;;;;;;;;;;5027802;28;20587;-69
2023/11/10 03:38:10;;;;;;;4.32;1.70;;;;;;;;;;5025949;28;20212;-72
2023/11/10 03:40:36;;;;;;;6.00;1.92;;;;;;;;;;5020984;28;20191;-69
2023/11/10 03:43:01;;;;;;;7.97;1.92;;;;;;;;;;5023936;28;20196;-68
2023/11/10 03:45:27;;;;;;;5.68;1.75;;;;;;;;;;5034469;28;20573;-70
2023/11/10 03:47:52;;;;;;;7.05;2.17;;;;;;;;;;5019513;28;20260;-70
2023/11/10 03:50:18;;;;;;;4.55;1.92;;;;;;;;;;5028584;28;20640;-70
2023/11/10 03:52:44;;;;;;;6.00;2.10;;;;;;;;;;5025402;28;20190;-69
2023/11/10 03:55:09;;;;;;;5.97;2.00;;;;;;;;;;5016824;28;20186;-70
2023/11/10 03:57:35;;;;;;;8.30;2.30;;;;;;;;;;5030910;28;20269;-69
2023/11/10 04:00:00;;;;;;;5.57;2.30;;;;;;;;;;5041241;28;20238;-69
2023/11/10 04:02:26;;;;;;;5.50;2.17;;;;;;;;;;5025684;28;20252;-70
2023/11/10 04:04:52;;;;;;;5.55;2.03;;;;;;;;;;5023185;28;20189;-68
2023/11/10 04:07:17;;;;;;;8.52;2.25;;;;;;;;;;5030381;28;20678;-69
2023/11/10 04:09:42;;;;;;;4.15;2.20;;;;;;;;;;5029779;28;20269;-71
2023/11/10 04:12:08;;;;;;;7.47;2.30;;;;;;;;;;5029519;28;20194;-72
2023/11/10 04:14:34;;;;;;;6.15;2.40;;;;;;;;;;5020034;28;20202;-68
2023/11/10 04:17:00;;;;;;;4.68;2.17;;;;;;;;;;5035255;28;20225;-69
2023/11/10 04:19:26;;;;;;;6.38;2.20;;;;;;;;;;5030524;28;20196;-70
2023/11/10 04:21:52;;;;;;;3.10;2.30;;;;;;;;;;5028477;28;20259;-70
2023/11/10 04:24:17;;;;;;;4.57;2.33;;;;;;;;;;5034675;28;20194;-70
2023/11/10 04:26:43;;;;;;;6.47;2.50;;;;;;;;;;5024881;28;20182;-71
2023/11/10 04:29:09;;;;;;;5.27;2.47;;;;;;;;;;5024270;28;20614;-73
2023/11/10 04:31:35;;;;;;;8.07;2.60;;;;;;;;;;5037020;28;20221;-70
2023/11/10 04:34:02;;;;;;;7.47;2.55;;;;;;;;;;5019103;28;20198;-70
2023/11/10 04:36:29;;;;;;;5.70;2.70;;;;;;;;;;5016478;28;20206;-70
2023/11/10 04:38:55;;;;;;;6.03;2.67;;;;;;;;;;5024424;28;20190;-70
2023/11/10 04:41:24;;;;;;;7.38;2.65;;;;;;;;;;5016726;28;20601;-70
2023/11/10 04:43:50;;;;;;;6.68;2.55;;;;;;;;;;5020198;28;20733;-69
2023/11/10 04:46:15;;;;;;;7.85;3.00;;;;;;;;;;5029682;28;20179;-69
2023/11/10 04:48:40;;;;;;;6.05;2.45;;;;;;;;;;5018056;28;20658;-70
2023/11/10 04:51:06;;;;;;;8.23;2.50;;;;;;;;;;5025531;28;20203;-69
2023/11/10 04:53:32;;;;;;;7.18;2.67;;;;;;;;;;5017227;28;20198;-69
2023/11/10 04:55:57;;;;;;;10.68;2.47;;;;;;;;;;5029252;28;20609;-70
2023/11/10 04:58:22;;;;;;;6.82;2.53;;;;;;;;;;5021422;28;20658;-69
2023/11/10 05:00:49;;;;;;;4.80;2.63;;;;;;;;;;5023210;28;20190;-71
2023/11/10 05:03:16;;;;;;;6.88;2.67;;;;;;;;;;5023685;28;20210;-69
2023/11/10 05:05:41;;;;;;;6.15;2.28;;;;;;;;;;5029735;28;20186;-69
2023/11/10 05:08:07;;;;;;;3.85;2.40;;;;;;;;;;5025498;28;20190;-69
2023/11/10 05:10:32;;;;;;;3.70;1.90;;;;;;;;;;5027927;28;20695;-69
2023/11/10 05:12:58;;;;;;;4.53;1.92;;;;;;;;;;5028182;28;20182;-69
2023/11/10 05:15:23;;;;;;;5.90;2.55;;;;;;;;;;5024991;28;20316;-69
2023/11/10 05:17:49;;;;;;;5.05;2.10;;;;;;;;;;5030047;28;20218;-69
2023/11/10 05:20:16;;;;;;;6.63;2.28;;;;;;;;;;5020722;28;20269;-68
2023/11/10 05:22:44;;;;;;;5.75;2.15;;;;;;;;;;5024556;28;20733;-68
2023/11/10 05:25:11;;;;;;;6.90;2.08;;;;;;;;;;5021579;28;20620;-68
2023/11/10 05:27:36;;;;;;;5.18;2.00;;;;;;;;;;5020715;28;20237;-68
2023/11/10 05:30:03;;;;;;;5.57;2.08;;;;;;;;;;5033313;28;20233;-69
2023/11/10 05:32:28;;;;;;;3.97;1.77;;;;;;;;;;5032241;28;20634;-68
2023/11/10 05:34:54;;;;;;;8.35;2.10;;;;;;;;;;5026376;28;20208;-69
2023/11/10 05:37:23;;;;;;;6.32;2.03;;;;;;;;;;5025549;28;20226;-68
2023/11/10 05:39:50;;;;;;;4.18;1.85;;;;;;;;;;5023422;28;20499;-68
2023/11/10 05:42:20;;;;;;;6.93;1.97;;;;;;;;;;5022850;28;20276;-68
2023/11/10 05:44:46;;;;;;;4.33;1.63;;;;;;;;;;5019891;28;20190;-68
2023/11/10 05:47:12;;;;;;;3.15;1.60;;;;;;;;;;5029281;28;20192;-68
2023/11/10 05:49:38;;;;;;;4.57;1.50;;;;;;;;;;5029111;28;20592;-68
2023/11/10 05:52:04;;;;;;;6.10;1.70;;;;;;;;;;5021912;28;20267;-69
2023/11/10 05:54:30;;;;;;;2.20;1.70;;;;;;;;;;5027446;28;20197;-68
2023/11/10 05:56:56;;;;;;;8.33;1.73;;;;;;;;;;5021563;28;20214;-68
2023/11/10 05:59:23;;;;;;;5.82;1.70;;;;;;;;;;5021856;28;20197;-68
2023/11/10 06:01:48;;;;;;;3.88;1.77;;;;;;;;;;5024349;28;20202;-70
2023/11/10 06:04:15;;;;;;;4.60;1.55;;;;;;;;;;5024331;28;20190;-69
2023/11/10 06:06:41;;;;;;;3.77;1.30;;;;;;;;;;5011396;28;20195;-69
2023/11/10 06:09:07;;;;;;;2.43;1.37;;;;;;;;;;5013930;28;20203;-69
2023/11/10 06:11:34;;;;;;;5.00;1.52;;;;;;;;;;5022772;28;20281;-68
2023/11/10 06:14:01;;;;;;;6.65;1.63;;;;;;;;;;5023527;28;20197;-71
2023/11/10 06:16:27;;;;;;;4.03;1.67;;;;;;;;;;5019360;28;20222;-69
2023/11/10 06:18:52;;;;;;;3.30;1.17;;;;;;;;;;5027480;28;20202;-69
2023/11/10 06:21:21;;;;;;;6.37;1.40;;;;;;;;;;5021191;28;20222;-69
2023/11/10 06:23:49;;;;;;;3.67;1.30;;;;;;;;;;5019178;28;20193;-69
2023/11/10 06:26:15;;;;;;;9.57;1.70;;;;;;;;;;5025316;28;20615;-70
2023/11/10 06:28:40;;;;;;;5.57;1.50;;;;;;;;;;5025350;28;20190;-69
2023/11/10 06:31:06;;;;;;;5.05;1.40;;;;;;;;;;5028649;28;20646;-69
2023/11/10 06:33:31;;;;;;;7.43;1.30;;;;;;;;;;5033827;28;20181;-69
2023/11/10 06:35:57;;;;;;;3.60;1.53;;;;;;;;;;4326682;28;10000804;-68
2023/11/10 06:38:23;;;;;;;4.25;1.33;;;;;;;;;;5019528;28;20400;-69
2023/11/10 06:40:48;;;;;;;2.88;1.33;;;;;;;;;;5019857;28;20198;-70
2023/11/10 06:43:14;;;;;;;2.85;1.50;;;;;;;;;;5019017;28;20637;-69
2023/11/10 06:45:39;;;;;;;6.32;1.50;;;;;;;;;;5016940;28;20194;-69
2023/11/10 06:48:05;;;;;;;6.10;1.70;;;;;;;;;;5021651;28;20273;-69
2023/11/10 06:50:31;;;;;;;7.28;1.80;;;;;;;;;;5019800;28;20194;-70
2023/11/10 06:52:59;;;;;;;5.97;1.83;;;;;;;;;;5027804;28;20224;-70
2023/11/10 06:55:25;;;;;;;5.43;1.58;;;;;;;;;;4677934;28;10000022;-69
2023/11/10 06:57:51;;;;;;;5.33;1.70;;;;;;;;;;5020411;28;20194;-70
2023/11/10 07:00:16;;;;;;;11.48;1.70;;;;;;;;;;5016182;28;20182;-69
2023/11/10 07:02:42;;;;;;;4.68;1.65;;;;;;;;;;5021523;28;20214;-69
2023/11/10 07:05:08;;;;;;;3.37;1.67;;;;;;;;;;5016698;28;20194;-69
2023/11/10 07:07:33;;;;;;;3.72;1.60;;;;;;;;;;5006564;28;20186;-68
2023/11/10 07:09:59;;;;;;;3.58;1.52;;;;;;;;;;5020803;28;20245;-68
2023/11/10 07:12:26;;;;;;;5.57;1.80;;;;;;;;;;5024778;28;20685;-70
2023/11/10 07:14:52;;;;;;;9.90;1.90;;;;;;;;;;5024035;28;20229;-70
2023/11/10 07:17:18;;;;;;;6.50;2.03;;;;;;;;;;5033102;28;20229;-69
2023/11/10 07:19:44;;;;;;;5.53;1.80;;;;;;;;;;5019942;28;20206;-69
2023/11/10 07:22:10;;;;;;;7.75;2.03;;;;;;;;;;5021272;28;20563;-70
2023/11/10 07:24:36;;;;;;;4.90;1.73;;;;;;;;;;5040142;28;20236;-69
2023/11/10 07:27:06;;;;;;;5.68;2.00;;;;;;;;;;5023422;28;20635;-70
2023/11/10 07:29:32;;;;;;;8.65;1.88;;;;;;;;;;5019526;28;20310;-68
2023/11/10 07:31:57;;;;;;;4.20;1.50;;;;;;;;;;5015511;28;20710;-69
2023/11/10 07:34:23;;;;;;;8.47;2.20;;;;;;;;;;5023235;28;20204;-69
2023/11/10 07:36:48;;;;;;;4.57;1.80;;;;;;;;;;5040827;28;20348;-68
2023/11/10 07:39:14;;;;;;;6.13;2.00;;;;;;;;;;5022914;28;20194;-69
2023/11/10 07:41:39;;;;;;;6.23;1.90;;;;;;;;;;5023002;28;20201;-68
2023/11/10 07:44:05;;;;;;;5.97;2.00;;;;;;;;;;5022688;28;20217;-69
2023/11/10 07:46:30;;;;;;;4.97;1.90;;;;;;;;;;5026336;28;20653;-69
2023/11/10 07:48:55;;;;;;;8.70;1.85;;;;;;;;;;5024179;28;20197;-69
2023/11/10 07:51:25;;;;;;;7.78;1.92;;;;;;;;;;5020076;28;20202;-70
2023/11/10 07:53:50;;;;;;;7.35;1.80;;;;;;;;;;5022832;28;20604;-69
2023/11/10 07:56:16;;;;;;;8.10;1.73;;;;;;;;;;5020534;28;20222;-68
2023/11/10 07:58:41;;;;;;;5.15;1.55;;;;;;;;;;5019278;28;20205;-71
2023/11/10 08:01:07;;;;;;;5.53;1.63;;;;;;;;;;5017734;28;20192;-70
2023/11/10 08:03:33;;;;;;;8.90;3.97;;;;;;;;;;5025247;28;20201;-69
2023/11/10 08:05:59;;;;;;;5.97;1.73;;;;;;;;;;5021870;28;20492;-69
2023/11/10 08:08:24;;;;;;;6.30;1.98;;;;;;;;;;5019637;28;20913;-69
2023/11/10 08:10:50;;;;;;;6.32;2.03;;;;;;;;;;5018048;28;20315;-69
2023/11/10 08:13:15;;;;;;;4.20;1.45;;;;;;;;;;5023102;28;20197;-70
2023/11/10 08:15:43;;;;;;;3.83;1.60;;;;;;;;;;5017553;28;20234;-70
2023/11/10 08:18:10;;;;;;;6.50;1.80;;;;;;;;;;5023172;28;20279;-69
2023/11/10 08:20:35;;;;;;;5.13;1.95;;;;;;;;;;5022325;28;20680;-69
2023/11/10 08:23:00;;;;;;;6.38;1.80;;;;;;;;;;5022695;28;20201;-72
2023/11/10 08:25:27;;;;;;;5.63;1.50;;;;;;;;;;5026569;28;20547;-70
2023/11/10 08:27:54;;;;;;;7.97;1.35;;;;;;;;;;5024025;28;20199;-69
2023/11/10 08:30:21;;;;;;;3.35;1.50;;;;;;;;;;5024973;28;20205;-69
2023/11/10 08:32:47;;;;;;;4.60;1.30;;;;;;;;;;5026183;28;20190;-68
2023/11/10 08:35:15;;;;;;;3.97;1.60;;;;;;;;;;5028374;28;20200;-69
2023/11/10 08:37:41;;;;;;;5.53;1.75;;;;;;;;;;5024858;28;20283;-68
2023/11/10 08:40:09;;;;;;;3.55;1.33;;;;;;;;;;5019358;28;20202;-70
2023/11/10 08:42:38;;;;;;;5.72;2.10;;;;;;;;;;5017521;28;20218;-70
2023/11/10 08:45:05;;;;;;;7.85;1.60;;;;;;;;;;5023638;28;20287;-69
2023/11/10 08:47:31;;;;;;;4.25;1.02;;;;;;;;;;5021665;28;20194;-69
2023/11/10 08:49:56;;;;;;;6.22;1.40;;;;;;;;;;5021337;28;20190;-68
2023/11/10 08:52:24;;;;;;;8.15;1.90;;;;;;;;;;5025386;28;20190;-69
2023/11/10 08:54:50;;;;;;;8.50;1.58;;;;;;;;;;5025139;28;20187;-69
2023/11/10 08:57:16;;;;;;;6.45;1.55;;;;;;;;;;5019817;28;20210;-68
2023/11/10 08:59:41;;;;;;;4.00;1.27;;;;;;;;;;5036182;28;20669;-68
2023/11/10 09:02:07;;;;;;;6.45;1.48;;;;;;;;;;5021939;28;20201;-70
2023/11/10 09:04:32;;;;;;;6.18;1.35;;;;;;;;;;5021690;28;20209;-68
2023/11/10 09:06:57;;;;;;;4.88;1.52;;;;;;;;;;5016302;28;20213;-69
2023/11/10 09:09:23;;;;;;;4.82;1.20;;;;;;;;;;5017120;28;20249;-69
2023/11/10 09:11:48;;;;;;;4.57;1.75;;;;;;;;;;5022691;28;20213;-69
2023/11/10 09:14:14;;;;;;;4.55;1.70;;;;;;;;;;5015093;28;20253;-69
2023/11/10 09:16:40;;;;;;;6.68;1.35;;;;;;;;;;5022001;28;20332;-69
2023/11/10 09:19:05;;;;;;;6.88;1.42;;;;;;;;;;5027194;28;20661;-69
2023/11/10 09:21:31;;;;;;;6.00;1.33;;;;;;;;;;5021454;28;20174;-68
2023/11/10 09:23:56;;;;;;;3.65;1.10;;;;;;;;;;5023597;28;21103;-69
2023/11/10 09:26:21;;;;;;;6.38;1.15;;;;;;;;;;5026591;28;20189;-68
2023/11/10 09:28:49;;;;;;;5.80;1.48;;;;;;;;;;5016294;28;20541;-68
2023/11/10 09:31:15;;;;;;;5.85;1.50;;;;;;;;;;5018608;28;20190;-69
2023/11/10 09:33:40;;;;;;;5.20;1.00;;;;;;;;;;5024276;28;20594;-70
2023/11/10 09:36:06;;;;;;;5.22;1.23;;;;;;;;;;5021905;28;20218;-68
2023/11/10 09:38:32;;;;;;;6.32;1.30;;;;;;;;;;5023860;28;20599;-70
2023/11/10 09:40:57;;;;;;;2.20;1.00;;;;;;;;;;5017518;28;20191;-70
2023/11/10 09:43:24;;;;;;;5.07;1.05;;;;;;;;;;5013365;28;20195;-70
2023/11/10 09:45:51;;;;;;;8.15;1.58;;;;;;;;;;5019316;28;20191;-74
2023/11/10 09:48:19;;;;;;;8.10;1.05;;;;;;;;;;5027303;28;20183;-69
2023/11/10 09:50:47;;;;;;;4.53;1.42;;;;;;;;;;5022345;28;20215;-69
2023/11/10 09:53:13;;;;;;;4.88;1.13;;;;;;;;;;5013383;28;20206;-70
2023/11/10 09:55:40;;;;;;;6.20;1.10;;;;;;;;;;5016043;28;20323;-68
2023/11/10 09:58:08;;;;;;;8.50;1.65;;;;;;;;;;5019206;28;20230;-69
2023/11/10 10:00:35;;;;;;;4.70;1.08;;;;;;;;;;5017658;28;20259;-69
2023/11/10 10:03:00;;;;;;;7.07;1.20;;;;;;;;;;5023306;28;20277;-69
2023/11/10 10:05:25;;;;;;;6.13;1.48;;;;;;;;;;5020100;28;20609;-69
2023/11/10 10:07:51;;;;;;;3.88;1.45;;;;;;;;;;5017914;28;20200;-68
2023/11/10 10:10:18;;;;;;;2.83;1.05;;;;;;;;;;5024088;28;20194;-69
2023/11/10 10:12:43;;;;;;;4.28;0.98;;;;;;;;;;5021317;28;20187;-69
2023/11/10 10:15:10;;;;;;;4.13;0.93;;;;;;;;;;5017848;28;20213;-69
2023/11/10 10:17:36;;;;;;;10.15;1.83;;;;;;;;;;5022873;28;20238;-69
2023/11/10 10:20:10;;;;;;;4.63;1.35;;;;;;;;;;5022350;28;20403;-70
2023/11/10 10:22:41;;;;;;;8.93;1.50;;;;;;;;;;5023469;28;20194;-69
2023/11/10 10:25:07;;;;;;;5.53;2.33;;;;;;;;;;5013584;28;20201;-68
2023/11/10 10:27:32;;;;;;;8.95;2.05;;;;;;;;;;5018066;28;20675;-69
2023/11/10 10:29:59;;;;;;;6.07;1.63;;;;;;;;;;5015116;28;20206;-68
2023/11/10 10:32:24;;;;;;;8.88;2.00;;;;;;;;;;5015523;28;20214;-71
2023/11/10 10:34:50;;;;;;;9.60;2.60;;;;;;;;;;4325538;28;9999920;-70
2023/11/10 10:37:17;;;;;;;9.05;1.60;;;;;;;;;;5023338;28;20220;-69
2023/11/10 10:39:44;;;;;;;7.70;1.45;;;;;;;;;;5023308;28;20201;-68
2023/11/10 10:42:16;;;;;;;8.82;1.67;;;;;;;;;;5013104;28;20544;-69
2023/11/10 10:44:44;;;;;;;6.10;1.50;;;;;;;;;;5017472;28;20234;-68
2023/11/10 10:47:10;;;;;;;9.02;1.90;;;;;;;;;;5021483;28;20193;-70
2023/11/10 10:49:37;;;;;;;5.53;1.48;;;;;;;;;;5014006;28;20580;-71
2023/11/10 10:52:04;;;;;;;12.00;2.00;;;;;;;;;;5017305;28;20481;-68
2023/11/10 10:54:30;;;;;;;6.15;1.45;;;;;;;;;;5013732;28;20240;-69
2023/11/10 10:56:57;;;;;;;7.90;1.58;;;;;;;;;;5016377;28;20613;-69
2023/11/10 10:59:22;;;;;;;8.43;2.00;;;;;;;;;;5018972;28;20186;-67
2023/11/10 11:01:50;;;;;;;7.57;1.88;;;;;;;;;;5017532;28;20239;-68
2023/11/10 11:04:29;;;;;;;6.53;1.63;;;;;;;;;;5019128;28;20194;-69
2023/11/10 11:07:22;;;;;;;7.22;1.40;;;;;;;;;;5018151;28;20198;-70
2023/11/10 11:10:12;;;;;;;6.95;1.70;;;;;;;;;;5015554;28;20196;-69
2023/11/10 11:13:03;;;;;;;10.30;1.67;;;;;;;;;;5035027;28;20201;-68
2023/11/10 11:16:07;;;;;;;8.90;1.70;;;;;;;;;;5014118;28;20244;-68
2023/11/10 11:18:54;;;;;;;8.00;1.77;;;;;;;;;;4981176;28;20425;-69
2023/11/10 11:21:21;;;;;;;5.88;2.55;;;;;;;;;;4976400;28;20675;-68
2023/11/10 11:23:50;;;;;;;9.68;1.98;;;;;;;;;;4980310;28;20228;-69
2023/11/10 11:26:16;;;;;;;9.38;1.60;;;;;;;;;;4973344;28;20730;-69
2023/11/10 11:28:42;;;;;;;5.75;1.42;;;;;;;;;;4977249;28;20191;-69
2023/11/10 11:31:11;;;;;;;9.70;1.48;;;;;;;;;;4980860;28;20713;-68
2023/11/10 11:33:52;;;;;;;4.38;1.17;;;;;;;;;;4996908;28;20719;-71
2023/11/10 11:36:18;;;;;;;10.30;2.00;;;;;;;;;;4979637;28;20250;-69
2023/11/10 11:38:45;;;;;;;4.40;1.52;;;;;;;;;;4983500;28;20198;-68
2023/11/10 11:41:15;;;;;;;4.35;1.27;;;;;;;;;;4983296;28;20231;-71
2023/11/10 11:43:53;;;;;;;5.43;1.50;;;;;;;;;;4980165;28;20203;-71
2023/11/10 11:46:29;;;;;;;10.57;1.50;;;;;;;;;;4989552;28;20533;-69
2023/11/10 11:48:55;;;;;;;4.72;1.25;;;;;;;;;;4983240;28;20273;-68
2023/11/10 11:51:21;;;;;;;8.95;1.77;;;;;;;;;;4982067;28;20240;-69
2023/11/10 11:53:46;;;;;;;5.70;1.35;;;;;;;;;;4988853;28;20187;-69
2023/11/10 11:56:13;;;;;;;5.82;1.88;;;;;;;;;;4978917;28;20243;-69
2023/11/10 11:58:38;;;;;;;9.10;1.35;;;;;;;;;;4977813;28;20200;-72
2023/11/10 12:01:04;;;;;;;5.90;1.45;;;;;;;;;;4984841;28;20196;-69
2023/11/10 12:03:29;;;;;;;7.28;1.38;;;;;;;;;;4981375;28;20196;-73
2023/11/10 12:05:58;;;;;;;4.68;1.40;;;;;;;;;;4981758;28;20282;-70
2023/11/10 12:08:23;;;;;;;9.15;1.48;;;;;;;;;;4987579;28;20195;-71
2023/11/10 12:10:49;;;;;;;6.80;1.70;;;;;;;;;;4984371;28;20589;-72
2023/11/10 12:13:21;;;;;;;8.38;1.38;;;;;;;;;;4983196;28;20329;-69
2023/11/10 12:15:47;;;;;;;3.95;1.75;;;;;;;;;;4983137;28;20362;-70
2023/11/10 12:18:12;;;;;;;8.40;1.40;;;;;;;;;;5016850;28;20260;-70
2023/11/10 12:20:40;;;;;;;9.25;1.60;;;;;;;;;;5036735;28;20217;-71
2023/11/10 12:23:06;;;;;;;6.47;1.33;;;;;;;;;;5016485;28;20222;-70
2023/11/10 12:25:38;;;;;;;6.97;0.90;;;;;;;;;;5021793;28;20553;-72
2023/11/10 12:28:05;;;;;;;4.85;1.45;;;;;;;;;;5019774;28;20735;-70
2023/11/10 12:30:30;;;;;;;4.47;1.10;;;;;;;;;;5018692;28;20277;-73
2023/11/10 12:32:55;;;;;;;6.70;1.30;;;;;;;;;;5019377;28;20276;-70
2023/11/10 12:35:22;;;;;;;4.20;1.05;;;;;;;;;;5021109;28;20245;-70
2023/11/10 12:37:51;;;;;;;8.57;1.23;;;;;;;;;;5022893;28;20209;-71
2023/11/10 12:40:18;;;;;;;5.45;1.30;;;;;;;;;;5021897;28;20216;-69
2023/11/10 12:42:46;;;;;;;7.28;1.40;;;;;;;;;;5018211;28;20190;-69
2023/11/10 12:45:12;;;;;;;4.50;1.20;;;;;;;;;;5021947;28;20587;-69
2023/11/10 12:47:42;;;;;;;4.38;0.95;;;;;;;;;;5018222;28;20195;-69
2023/11/10 12:50:13;;;;;;;3.35;1.02;;;;;;;;;;5017911;28;20190;-70
2023/11/10 12:52:39;;;;;;;5.15;1.10;;;;;;;;;;5016244;28;20702;-70
2023/11/10 12:55:05;;;;;;;2.75;0.90;;;;;;;;;;5020310;28;20218;-70
2023/11/10 12:57:31;;;;;;;4.45;1.20;;;;;;;;;;5019446;28;20255;-69
2023/11/10 13:00:12;;;;;;;4.32;0.98;;;;;;;;;;5022069;28;20186;-69
2023/11/10 13:02:41;;;;;;;7.13;1.25;;;;;;;;;;5017656;28;20198;-70
2023/11/10 13:05:07;;;;;;;3.35;0.80;;;;;;;;;;5021831;28;20190;-70
2023/11/10 13:07:36;;;;;;;4.03;1.15;;;;;;;;;;5017771;28;20213;-72
2023/11/10 13:10:06;;;;;;;4.68;1.30;;;;;;;;;;5018226;28;20199;-71
2023/11/10 13:12:33;;;;;;;3.50;1.35;;;;;;;;;;5018544;28;20198;-71
2023/11/10 13:14:59;;;;;;;4.78;1.77;;;;;;;;;;5016462;28;20218;-72
2023/11/10 13:17:26;;;;;;;5.45;1.60;;;;;;;;;;5018764;28;20237;-71
2023/11/10 13:19:51;;;;;;;4.25;2.20;;;;;;;;;;5021892;28;20662;-71
2023/11/10 13:22:19;;;;;;;6.20;1.70;;;;;;;;;;5015842;28;20194;-71
2023/11/10 13:24:46;;;;;;;5.07;1.85;;;;;;;;;;5018216;28;20191;-72
2023/11/10 13:27:12;;;;;;;8.55;1.95;;;;;;;;;;5019795;28;20194;-72
2023/11/10 13:29:42;;;;;;;5.75;1.60;;;;;;;;;;5020775;28;20676;-72
2023/11/10 13:32:12;;;;;;;3.85;1.88;;;;;;;;;;5019172;28;20269;-72
2023/11/10 13:34:39;;;;;;;6.13;1.90;;;;;;;;;;5017854;28;20194;-71
2023/11/10 13:37:05;;;;;;;4.47;1.48;;;;;;;;;;5008374;28;20304;-70
2023/11/10 13:39:31;;;;;;;5.05;1.80;;;;;;;;;;5017543;28;20574;-72
2023/11/10 13:41:56;;;;;;;4.57;1.50;;;;;;;;;;5016410;28;20236;-75
2023/11/10 13:44:22;;;;;;;4.40;1.88;;;;;;;;;;5016033;28;20569;-70
2023/11/10 13:46:48;;;;;;;5.63;1.83;;;;;;;;;;5015594;28;20256;-70
2023/11/10 13:49:13;;;;;;;6.75;2.10;;;;;;;;;;5016787;28;20705;-71
2023/11/10 13:51:39;;;;;;;7.68;2.55;;;;;;;;;;5035842;28;20202;-70
2023/11/10 13:54:05;;;;;;;6.30;2.17;;;;;;;;;;5016638;28;20190;-70
2023/11/10 13:56:33;;;;;;;4.30;1.70;;;;;;;;;;5016844;28;20325;-71
2023/11/10 13:58:59;;;;;;;5.70;1.77;;;;;;;;;;5016521;28;20191;-69
2023/11/10 14:01:24;;;;;;;5.93;1.73;;;;;;;;;;5014171;28;20196;-70
2023/11/10 14:03:50;;;;;;;6.05;2.47;;;;;;;;;;5015990;28;20275;-74
2023/11/10 14:06:16;;;;;;;8.88;2.03;;;;;;;;;;5004016;28;20498;-69
2023/11/10 14:08:42;;;;;;;8.73;2.10;;;;;;;;;;5023018;28;20202;-69
2023/11/10 14:11:10;;;;;;;4.25;1.90;;;;;;;;;;5021571;28;20190;-71
2023/11/10 14:13:36;;;;;;;8.77;2.15;;;;;;;;;;5020902;28;20205;-69
2023/11/10 14:16:05;;;;;;;5.95;2.35;;;;;;;;;;5023032;28;20248;-70
2023/11/10 14:18:30;;;;;;;6.13;1.95;;;;;;;;;;5023671;28;20208;-70
2023/11/10 14:20:56;;;;;;;7.80;1.52;;;;;;;;;;5021521;28;20191;-70
2023/11/10 14:23:22;;;;;;;6.00;1.50;;;;;;;;;;5004843;28;20190;-70
2023/11/10 14:25:47;;;;;;;4.43;2.17;;;;;;;;;;5022587;28;20186;-70
2023/11/10 14:28:13;;;;;;;4.57;2.17;;;;;;;;;;5022090;28;20464;-70
2023/11/10 14:30:38;;;;;;;5.10;2.08;;;;;;;;;;5021947;28;20631;-70
2023/11/10 14:33:05;;;;;;;9.55;2.10;;;;;;;;;;5020271;28;20222;-70
2023/11/10 14:35:31;;;;;;;10.43;2.72;;;;;;;;;;5021315;28;20317;-70
2023/11/10 14:37:58;;;;;;;3.33;1.67;;;;;;;;;;5036106;28;20297;-69
2023/11/10 14:40:31;;;;;;;7.72;2.38;;;;;;;;;;5023393;28;20601;-70